sensor_id;sensor_type;location;lat;lon;timestamp;pressure;altitude;pressure_sealevel;temperature;humidity
21361;BME280;10839;43.206;23.550;2023-02-15T00:01:39;98507.66;;;2.59;89.84
21361;BME280;10839;43.206;23.550;2023-02-15T00:04:06;98503.94;;;2.38;90.24
21361;BME280;10839;43.206;23.550;2023-02-15T00:06:33;98521.78;;;2.36;91.79
21361;BME280;10839;43.206;23.550;2023-02-15T00:08:59;98516.97;;;2.41;90.94
21361;BME280;10839;43.206;23.550;2023-02-15T00:11:25;98528.88;;;2.12;93.41
21361;BME280;10839;43.206;23.550;2023-02-15T00:14:19;98514.78;;;2.35;92.78
21361;BME280;10839;43.206;23.550;2023-02-15T00:16:47;98513.44;;;2.53;91.34
21361;BME280;10839;43.206;23.550;2023-02-15T00:19:16;98527.16;;;2.11;94.12
21361;BME280;10839;43.206;23.550;2023-02-15T00:21:43;98523.56;;;2.12;94.76
21361;BME280;10839;43.206;23.550;2023-02-15T00:24:11;98517.31;;;2.37;92.73
21361;BME280;10839;43.206;23.550;2023-02-15T00:26:39;98520.28;;;2.45;91.88
21361;BME280;10839;43.206;23.550;2023-02-15T00:29:06;98510.81;;;2.17;93.76
21361;BME280;10839;43.206;23.550;2023-02-15T00:31:33;98522.00;;;2.33;92.61
21361;BME280;10839;43.206;23.550;2023-02-15T00:34:06;98517.16;;;2.27;91.28
21361;BME280;10839;43.206;23.550;2023-02-15T00:36:32;98523.13;;;1.93;94.19
21361;BME280;10839;43.206;23.550;2023-02-15T00:38:59;98518.28;;;1.87;95.15
21361;BME280;10839;43.206;23.550;2023-02-15T00:41:25;98514.41;;;2.16;92.94
21361;BME280;10839;43.206;23.550;2023-02-15T00:43:51;98519.91;;;2.26;92.31
21361;BME280;10839;43.206;23.550;2023-02-15T00:46:18;98518.50;;;1.84;94.25
21361;BME280;10839;43.206;23.550;2023-02-15T00:48:44;98513.88;;;2.11;93.97
21361;BME280;10839;43.206;23.550;2023-02-15T00:51:10;98518.06;;;2.39;92.49
21361;BME280;10839;43.206;23.550;2023-02-15T00:53:36;98514.41;;;2.16;92.37
21361;BME280;10839;43.206;23.550;2023-02-15T00:56:01;98531.16;;;2.29;92.75
21361;BME280;10839;43.206;23.550;2023-02-15T00:58:27;98518.97;;;2.50;91.69
21361;BME280;10839;43.206;23.550;2023-02-15T01:00:53;98515.44;;;2.63;90.30
21361;BME280;10839;43.206;23.550;2023-02-15T01:03:20;98528.47;;;2.42;91.72
21361;BME280;10839;43.206;23.550;2023-02-15T01:05:47;98526.66;;;2.42;92.88
21361;BME280;10839;43.206;23.550;2023-02-15T01:08:15;98530.31;;;2.89;89.12
21361;BME280;10839;43.206;23.550;2023-02-15T01:10:40;98517.00;;;2.65;90.20
21361;BME280;10839;43.206;23.550;2023-02-15T01:13:07;98517.63;;;2.69;91.24
21361;BME280;10839;43.206;23.550;2023-02-15T01:15:34;98516.03;;;2.90;89.66
21361;BME280;10839;43.206;23.550;2023-02-15T01:18:00;98519.22;;;2.95;89.04
21361;BME280;10839;43.206;23.550;2023-02-15T01:20:28;98510.84;;;2.64;90.79
21361;BME280;10839;43.206;23.550;2023-02-15T01:22:54;98504.22;;;2.94;89.27
21361;BME280;10839;43.206;23.550;2023-02-15T01:25:22;98499.25;;;3.13;86.86
21361;BME280;10839;43.206;23.550;2023-02-15T01:27:49;98496.72;;;2.88;88.95
21361;BME280;10839;43.206;23.550;2023-02-15T01:30:16;98508.78;;;2.81;90.58
21361;BME280;10839;43.206;23.550;2023-02-15T01:32:42;98492.94;;;3.14;89.39
21361;BME280;10839;43.206;23.550;2023-02-15T01:35:10;98498.84;;;3.06;88.93
21361;BME280;10839;43.206;23.550;2023-02-15T01:37:36;98492.97;;;2.90;90.26
21361;BME280;10839;43.206;23.550;2023-02-15T01:40:06;98490.72;;;2.97;89.93
21361;BME280;10839;43.206;23.550;2023-02-15T01:42:33;98496.53;;;3.02;89.20
21361;BME280;10839;43.206;23.550;2023-02-15T01:45:00;98493.78;;;2.80;91.04
21361;BME280;10839;43.206;23.550;2023-02-15T01:47:43;98491.47;;;2.75;92.08
21361;BME280;10839;43.206;23.550;2023-02-15T01:50:20;98483.94;;;2.93;91.55
21361;BME280;10839;43.206;23.550;2023-02-15T01:53:12;98488.91;;;2.74;92.07
21361;BME280;10839;43.206;23.550;2023-02-15T01:55:45;98485.28;;;2.75;93.11
21361;BME280;10839;43.206;23.550;2023-02-15T01:58:14;98483.38;;;2.77;92.79
21361;BME280;10839;43.206;23.550;2023-02-15T02:00:40;98476.84;;;3.04;91.09
21361;BME280;10839;43.206;23.550;2023-02-15T02:03:06;98482.97;;;2.70;93.47
21361;BME280;10839;43.206;23.550;2023-02-15T02:05:33;98495.41;;;2.70;94.12
21361;BME280;10839;43.206;23.550;2023-02-15T02:08:01;98487.78;;;2.89;93.07
21361;BME280;10839;43.206;23.550;2023-02-15T02:10:28;98491.97;;;2.80;92.94
21361;BME280;10839;43.206;23.550;2023-02-15T02:13:03;98487.91;;;2.63;94.28
21361;BME280;10839;43.206;23.550;2023-02-15T02:18:48;98491.09;;;2.80;92.93
21361;BME280;10839;43.206;23.550;2023-02-15T02:35:07;98501.81;;;2.91;93.41
21361;BME280;10839;43.206;23.550;2023-02-15T02:38:10;98502.47;;;2.82;94.14
21361;BME280;10839;43.206;23.550;2023-02-15T02:43:18;98495.59;;;3.03;92.85
21361;BME280;10839;43.206;23.550;2023-02-15T02:48:26;98495.91;;;2.75;95.40
21361;BME280;10839;43.206;23.550;2023-02-15T02:50:53;98497.31;;;2.91;94.53
21361;BME280;10839;43.206;23.550;2023-02-15T02:53:19;98490.91;;;2.83;94.44
21361;BME280;10839;43.206;23.550;2023-02-15T02:55:48;98494.00;;;2.77;95.59
21361;BME280;10839;43.206;23.550;2023-02-15T02:58:31;98500.31;;;2.87;95.20
21361;BME280;10839;43.206;23.550;2023-02-15T03:01:07;98509.16;;;3.11;92.91
21361;BME280;10839;43.206;23.550;2023-02-15T03:03:47;98507.75;;;2.94;93.85
21361;BME280;10839;43.206;23.550;2023-02-15T03:06:28;98501.34;;;2.97;94.37
21361;BME280;10839;43.206;23.550;2023-02-15T03:09:03;98501.19;;;3.22;92.52
21361;BME280;10839;43.206;23.550;2023-02-15T03:11:32;98513.22;;;3.04;94.05
21361;BME280;10839;43.206;23.550;2023-02-15T03:13:59;98499.50;;;3.21;92.85
21361;BME280;10839;43.206;23.550;2023-02-15T03:16:26;98499.78;;;3.40;92.08
21361;BME280;10839;43.206;23.550;2023-02-15T03:19:03;98515.47;;;3.21;92.89
21361;BME280;10839;43.206;23.550;2023-02-15T03:21:36;98505.88;;;3.07;94.22
21361;BME280;10839;43.206;23.550;2023-02-15T03:24:13;98510.91;;;3.34;93.39
21361;BME280;10839;43.206;23.550;2023-02-15T03:26:43;98510.91;;;3.34;92.92
21361;BME280;10839;43.206;23.550;2023-02-15T03:29:12;98510.16;;;3.21;93.53
21361;BME280;10839;43.206;23.550;2023-02-15T03:31:41;98522.28;;;3.36;93.68
21361;BME280;10839;43.206;23.550;2023-02-15T03:34:11;98513.88;;;3.64;91.39
21361;BME280;10839;43.206;23.550;2023-02-15T03:39:55;98515.66;;;3.52;93.12
21361;BME280;10839;43.206;23.550;2023-02-15T03:42:44;98522.59;;;3.66;91.97
21361;BME280;10839;43.206;23.550;2023-02-15T03:45:16;98521.81;;;3.53;92.59
21361;BME280;10839;43.206;23.550;2023-02-15T03:47:46;98532.28;;;3.78;92.56
21361;BME280;10839;43.206;23.550;2023-02-15T03:50:33;98520.69;;;3.90;90.11
21361;BME280;10839;43.206;23.550;2023-02-15T03:53:22;98525.22;;;3.55;92.63
21361;BME280;10839;43.206;23.550;2023-02-15T03:55:52;98534.19;;;3.76;92.10
21361;BME280;10839;43.206;23.550;2023-02-15T03:58:18;98533.00;;;3.91;90.74
21361;BME280;10839;43.206;23.550;2023-02-15T04:01:37;98536.47;;;3.58;91.61
21361;BME280;10839;43.206;23.550;2023-02-15T04:06:49;98534.72;;;3.92;90.65
21361;BME280;10839;43.206;23.550;2023-02-15T04:09:15;98533.75;;;3.71;91.27
21361;BME280;10839;43.206;23.550;2023-02-15T04:12:00;98537.34;;;3.81;92.35
21361;BME280;10839;43.206;23.550;2023-02-15T04:14:26;98541.47;;;3.96;90.95
21361;BME280;10839;43.206;23.550;2023-02-15T04:17:10;98541.22;;;3.77;91.86
21361;BME280;10839;43.206;23.550;2023-02-15T04:19:35;98535.19;;;3.86;91.60
21361;BME280;10839;43.206;23.550;2023-02-15T04:22:20;98527.47;;;3.94;90.75
21361;BME280;10839;43.206;23.550;2023-02-15T04:25:04;98536.66;;;3.79;91.11
21361;BME280;10839;43.206;23.550;2023-02-15T04:27:58;98534.69;;;3.70;93.10
21361;BME280;10839;43.206;23.550;2023-02-15T04:30:25;98541.13;;;3.89;91.79
21361;BME280;10839;43.206;23.550;2023-02-15T04:32:53;98547.53;;;3.87;90.96
21361;BME280;10839;43.206;23.550;2023-02-15T04:35:20;98546.31;;;3.80;91.72
21361;BME280;10839;43.206;23.550;2023-02-15T04:37:45;98550.81;;;4.02;90.73
21361;BME280;10839;43.206;23.550;2023-02-15T04:40:13;98539.09;;;4.15;88.85
21361;BME280;10839;43.206;23.550;2023-02-15T04:42:39;98551.75;;;3.89;90.47
21361;BME280;10839;43.206;23.550;2023-02-15T04:45:05;98548.72;;;3.83;90.85
21361;BME280;10839;43.206;23.550;2023-02-15T04:47:31;98562.56;;;3.99;90.15
21361;BME280;10839;43.206;23.550;2023-02-15T04:49:57;98554.53;;;3.88;90.40
21361;BME280;10839;43.206;23.550;2023-02-15T04:52:23;98548.59;;;3.84;91.31
21361;BME280;10839;43.206;23.550;2023-02-15T04:54:49;98557.47;;;3.96;90.80
21361;BME280;10839;43.206;23.550;2023-02-15T04:57:15;98550.09;;;3.88;89.85
21361;BME280;10839;43.206;23.550;2023-02-15T04:59:40;98556.22;;;3.67;91.90
21361;BME280;10839;43.206;23.550;2023-02-15T05:02:06;98558.06;;;3.77;92.64
21361;BME280;10839;43.206;23.550;2023-02-15T05:04:32;98553.47;;;3.90;91.16
21361;BME280;10839;43.206;23.550;2023-02-15T05:06:58;98569.53;;;3.78;91.37
21361;BME280;10839;43.206;23.550;2023-02-15T05:09:24;98568.34;;;3.82;92.53
21361;BME280;10839;43.206;23.550;2023-02-15T05:11:50;98568.84;;;3.87;91.63
21361;BME280;10839;43.206;23.550;2023-02-15T05:14:16;98574.16;;;3.98;90.98
21361;BME280;10839;43.206;23.550;2023-02-15T05:16:42;98574.75;;;3.79;92.59
21361;BME280;10839;43.206;23.550;2023-02-15T05:19:08;98574.91;;;4.00;91.31
21361;BME280;10839;43.206;23.550;2023-02-15T05:21:34;98573.22;;;4.10;89.59
21361;BME280;10839;43.206;23.550;2023-02-15T05:24:00;98577.06;;;3.95;90.10
21361;BME280;10839;43.206;23.550;2023-02-15T05:26:26;98573.22;;;4.21;89.60
21361;BME280;10839;43.206;23.550;2023-02-15T05:29:10;98570.06;;;4.38;87.63
21361;BME280;10839;43.206;23.550;2023-02-15T05:31:36;98567.88;;;4.21;88.36
21361;BME280;10839;43.206;23.550;2023-02-15T05:34:03;98576.13;;;4.51;87.07
21361;BME280;10839;43.206;23.550;2023-02-15T05:36:29;98571.00;;;4.59;85.95
21361;BME280;10839;43.206;23.550;2023-02-15T05:38:55;98577.34;;;4.47;86.17
21361;BME280;10839;43.206;23.550;2023-02-15T05:41:21;98587.50;;;4.64;86.15
21361;BME280;10839;43.206;23.550;2023-02-15T05:43:47;98586.88;;;5.78;80.63
21361;BME280;10839;43.206;23.550;2023-02-15T05:46:13;98588.78;;;6.07;77.46
21361;BME280;10839;43.206;23.550;2023-02-15T05:48:39;98599.63;;;6.36;76.88
21361;BME280;10839;43.206;23.550;2023-02-15T05:51:10;98604.44;;;7.21;73.20
21361;BME280;10839;43.206;23.550;2023-02-15T05:53:39;98603.59;;;7.30;70.53
21361;BME280;10839;43.206;23.550;2023-02-15T05:56:07;98597.72;;;7.65;69.03
21361;BME280;10839;43.206;23.550;2023-02-15T05:58:36;98593.91;;;8.52;66.86
21361;BME280;10839;43.206;23.550;2023-02-15T06:01:15;98601.28;;;8.77;63.90
21361;BME280;10839;43.206;23.550;2023-02-15T06:03:41;98590.16;;;8.72;63.54
21361;BME280;10839;43.206;23.550;2023-02-15T06:06:07;98594.78;;;9.51;61.49
21361;BME280;10839;43.206;23.550;2023-02-15T06:08:34;98600.97;;;10.48;58.35
21361;BME280;10839;43.206;23.550;2023-02-15T06:11:01;98586.34;;;9.81;59.12
21361;BME280;10839;43.206;23.550;2023-02-15T06:13:27;98596.91;;;10.18;58.46
21361;BME280;10839;43.206;23.550;2023-02-15T06:15:53;98596.72;;;11.54;54.98
21361;BME280;10839;43.206;23.550;2023-02-15T06:18:19;98608.78;;;11.26;53.92
21361;BME280;10839;43.206;23.550;2023-02-15T06:20:48;98606.22;;;11.98;52.79
21361;BME280;10839;43.206;23.550;2023-02-15T06:23:14;98604.84;;;12.58;50.15
21361;BME280;10839;43.206;23.550;2023-02-15T06:25:41;98610.78;;;12.14;49.68
21361;BME280;10839;43.206;23.550;2023-02-15T06:28:07;98611.97;;;12.27;51.35
21361;BME280;10839;43.206;23.550;2023-02-15T06:30:33;98609.06;;;13.54;48.35
21361;BME280;10839;43.206;23.550;2023-02-15T06:32:58;98613.66;;;13.54;46.41
21361;BME280;10839;43.206;23.550;2023-02-15T06:35:24;98608.38;;;13.83;46.36
21361;BME280;10839;43.206;23.550;2023-02-15T06:37:50;98611.78;;;14.96;43.51
21361;BME280;10839;43.206;23.550;2023-02-15T06:40:16;98604.41;;;14.90;42.98
21361;BME280;10839;43.206;23.550;2023-02-15T06:42:43;98609.41;;;14.64;44.24
21361;BME280;10839;43.206;23.550;2023-02-15T06:45:09;98608.66;;;15.58;42.86
21361;BME280;10839;43.206;23.550;2023-02-15T06:47:36;98601.59;;;15.99;40.88
21361;BME280;10839;43.206;23.550;2023-02-15T06:50:03;98598.63;;;15.94;40.87
21361;BME280;10839;43.206;23.550;2023-02-15T06:52:29;98602.72;;;14.38;42.97
21361;BME280;10839;43.206;23.550;2023-02-15T06:54:55;98599.56;;;15.65;41.34
21361;BME280;10839;43.206;23.550;2023-02-15T06:57:20;98602.72;;;16.74;39.27
21361;BME280;10839;43.206;23.550;2023-02-15T06:59:48;98600.31;;;16.92;38.97
21361;BME280;10839;43.206;23.550;2023-02-15T07:02:14;98602.88;;;16.45;39.54
21361;BME280;10839;43.206;23.550;2023-02-15T07:04:40;98604.47;;;17.56;37.69
21361;BME280;10839;43.206;23.550;2023-02-15T07:07:10;98607.63;;;17.19;38.16
21361;BME280;10839;43.206;23.550;2023-02-15T07:09:38;98610.91;;;17.96;36.98
21361;BME280;10839;43.206;23.550;2023-02-15T07:12:05;98606.31;;;17.15;37.46
21361;BME280;10839;43.206;23.550;2023-02-15T07:14:49;98600.63;;;17.92;36.35
21361;BME280;10839;43.206;23.550;2023-02-15T07:17:15;98616.59;;;18.21;35.59
21361;BME280;10839;43.206;23.550;2023-02-15T07:19:43;98613.03;;;18.20;35.72
21361;BME280;10839;43.206;23.550;2023-02-15T07:22:08;98612.22;;;18.26;35.33
21361;BME280;10839;43.206;23.550;2023-02-15T07:24:34;98604.59;;;17.96;35.68
21361;BME280;10839;43.206;23.550;2023-02-15T07:27:00;98618.13;;;18.56;34.91
21361;BME280;10839;43.206;23.550;2023-02-15T07:29:25;98618.56;;;18.66;34.79
21361;BME280;10839;43.206;23.550;2023-02-15T07:31:52;98613.84;;;19.38;33.94
21361;BME280;10839;43.206;23.550;2023-02-15T07:34:17;98608.06;;;18.63;34.28
21361;BME280;10839;43.206;23.550;2023-02-15T07:36:43;98603.06;;;17.73;35.54
21361;BME280;10839;43.206;23.550;2023-02-15T07:39:10;98612.34;;;17.38;36.26
21361;BME280;10839;43.206;23.550;2023-02-15T07:41:36;98608.22;;;17.55;35.86
21361;BME280;10839;43.206;23.550;2023-02-15T07:44:14;98604.19;;;17.04;36.60
21361;BME280;10839;43.206;23.550;2023-02-15T07:46:40;98609.97;;;18.43;34.59
21361;BME280;10839;43.206;23.550;2023-02-15T07:49:06;98602.38;;;16.35;37.02
21361;BME280;10839;43.206;23.550;2023-02-15T07:51:32;98599.41;;;16.09;37.66
21361;BME280;10839;43.206;23.550;2023-02-15T07:53:58;98598.56;;;16.78;36.76
21361;BME280;10839;43.206;23.550;2023-02-15T07:56:24;98601.97;;;16.38;37.42
21361;BME280;10839;43.206;23.550;2023-02-15T07:58:49;98603.41;;;16.13;37.76
21361;BME280;10839;43.206;23.550;2023-02-15T08:01:24;98601.09;;;15.24;39.44
21361;BME280;10839;43.206;23.550;2023-02-15T08:03:50;98600.06;;;15.90;38.92
21361;BME280;10839;43.206;23.550;2023-02-15T08:06:16;98608.19;;;15.90;38.48
21361;BME280;10839;43.206;23.550;2023-02-15T08:08:42;98605.34;;;16.95;37.19
21361;BME280;10839;43.206;23.550;2023-02-15T08:14:06;98599.31;;;17.34;36.32
21361;BME280;10839;43.206;23.550;2023-02-15T08:16:36;98596.09;;;17.17;36.39
21361;BME280;10839;43.206;23.550;2023-02-15T08:19:09;98595.69;;;17.54;36.27
21361;BME280;10839;43.206;23.550;2023-02-15T08:21:38;98597.06;;;18.04;35.12
21361;BME280;10839;43.206;23.550;2023-02-15T08:24:05;98600.09;;;18.42;34.48
21361;BME280;10839;43.206;23.550;2023-02-15T08:26:31;98594.94;;;17.87;35.15
21361;BME280;10839;43.206;23.550;2023-02-15T08:28:58;98601.75;;;16.82;36.41
21361;BME280;10839;43.206;23.550;2023-02-15T08:31:25;98596.88;;;17.45;35.75
21361;BME280;10839;43.206;23.550;2023-02-15T08:33:52;98610.78;;;15.98;37.61
21361;BME280;10839;43.206;23.550;2023-02-15T08:36:21;98608.31;;;15.82;38.00
21361;BME280;10839;43.206;23.550;2023-02-15T08:38:48;98617.19;;;15.11;39.15
21361;BME280;10839;43.206;23.550;2023-02-15T08:43:48;98613.63;;;14.30;40.93
21361;BME280;10839;43.206;23.550;2023-02-15T08:46:15;98614.25;;;14.54;40.74
21361;BME280;10839;43.206;23.550;2023-02-15T08:48:41;98605.56;;;13.99;41.70
21361;BME280;10839;43.206;23.550;2023-02-15T08:51:28;98604.81;;;15.88;38.73
21361;BME280;10839;43.206;23.550;2023-02-15T08:53:56;98615.56;;;16.59;37.86
21361;BME280;10839;43.206;23.550;2023-02-15T08:56:24;98611.81;;;16.18;38.20
21361;BME280;10839;43.206;23.550;2023-02-15T08:58:52;98622.94;;;16.44;37.66
21361;BME280;10839;43.206;23.550;2023-02-15T09:01:21;98611.16;;;16.16;37.70
21361;BME280;10839;43.206;23.550;2023-02-15T09:03:50;98621.50;;;15.20;39.37
21361;BME280;10839;43.206;23.550;2023-02-15T09:06:19;98614.50;;;15.76;38.80
21361;BME280;10839;43.206;23.550;2023-02-15T09:08:45;98606.25;;;16.05;38.25
21361;BME280;10839;43.206;23.550;2023-02-15T09:11:18;98610.03;;;16.46;37.63
21361;BME280;10839;43.206;23.550;2023-02-15T09:16:23;98616.72;;;17.05;36.41
21361;BME280;10839;43.206;23.550;2023-02-15T09:18:50;98606.97;;;17.51;36.10
21361;BME280;10839;43.206;23.550;2023-02-15T09:21:19;98605.69;;;17.47;35.54
21361;BME280;10839;43.206;23.550;2023-02-15T09:23:48;98610.19;;;17.74;35.38
21361;BME280;10839;43.206;23.550;2023-02-15T09:26:16;98609.63;;;17.99;34.84
21361;BME280;10839;43.206;23.550;2023-02-15T09:28:43;98608.97;;;17.36;35.65
21361;BME280;10839;43.206;23.550;2023-02-15T09:31:13;98606.66;;;17.33;35.56
21361;BME280;10839;43.206;23.550;2023-02-15T09:33:41;98609.97;;;17.69;35.70
21361;BME280;10839;43.206;23.550;2023-02-15T09:36:17;98603.97;;;18.07;34.91
21361;BME280;10839;43.206;23.550;2023-02-15T09:38:44;98613.06;;;18.92;33.60
21361;BME280;10839;43.206;23.550;2023-02-15T09:46:41;98596.66;;;18.01;35.01
21361;BME280;10839;43.206;23.550;2023-02-15T09:58:15;98597.09;;;18.37;34.22
21361;BME280;10839;43.206;23.550;2023-02-15T10:22:51;98558.50;;;17.88;35.25
21361;BME280;10839;43.206;23.550;2023-02-15T10:28:11;98558.66;;;17.60;35.60
21361;BME280;10839;43.206;23.550;2023-02-15T10:30:43;98552.91;;;17.48;35.22
21361;BME280;10839;43.206;23.550;2023-02-15T10:36:11;98547.31;;;16.47;37.19
21361;BME280;10839;43.206;23.550;2023-02-15T10:39:02;98542.56;;;17.24;36.09
21361;BME280;10839;43.206;23.550;2023-02-15T10:41:42;98534.91;;;17.47;35.22
21361;BME280;10839;43.206;23.550;2023-02-15T10:44:25;98538.31;;;17.62;35.43
21361;BME280;10839;43.206;23.550;2023-02-15T10:58:14;98526.16;;;17.58;35.28
21361;BME280;10839;43.206;23.550;2023-02-15T11:00:54;98525.00;;;18.13;34.92
21361;BME280;10839;43.206;23.550;2023-02-15T11:06:21;98517.19;;;17.17;36.03
21361;BME280;10839;43.206;23.550;2023-02-15T11:08:57;98518.06;;;17.24;36.33
21361;BME280;10839;43.206;23.550;2023-02-15T11:11:32;98514.34;;;17.38;35.62
21361;BME280;10839;43.206;23.550;2023-02-15T11:16:58;98518.06;;;17.24;36.00
21361;BME280;10839;43.206;23.550;2023-02-15T11:19:35;98514.81;;;17.48;35.57
21361;BME280;10839;43.206;23.550;2023-02-15T11:22:05;98511.69;;;17.04;36.22
21361;BME280;10839;43.206;23.550;2023-02-15T11:24:39;98510.13;;;15.57;38.23
21361;BME280;10839;43.206;23.550;2023-02-15T11:27:19;98502.22;;;14.91;40.41
21361;BME280;10839;43.206;23.550;2023-02-15T11:30:01;98494.88;;;16.26;37.77
21361;BME280;10839;43.206;23.550;2023-02-15T11:32:42;98492.16;;;15.20;39.39
21361;BME280;10839;43.206;23.550;2023-02-15T11:42:46;98481.38;;;15.42;39.64
21361;BME280;10839;43.206;23.550;2023-02-15T11:45:32;98480.53;;;15.62;39.06
21361;BME280;10839;43.206;23.550;2023-02-15T11:48:09;98479.75;;;14.47;40.90
21361;BME280;10839;43.206;23.550;2023-02-15T11:50:37;98468.22;;;14.88;40.38
21361;BME280;10839;43.206;23.550;2023-02-15T11:53:09;98465.34;;;14.61;40.80
21361;BME280;10839;43.206;23.550;2023-02-15T11:55:38;98461.78;;;14.31;42.52
21361;BME280;10839;43.206;23.550;2023-02-15T12:00:52;98448.84;;;14.91;40.49
21361;BME280;10839;43.206;23.550;2023-02-15T12:03:43;98457.44;;;13.93;42.38
21361;BME280;10839;43.206;23.550;2023-02-15T12:06:34;98442.97;;;15.23;40.32
21361;BME280;10839;43.206;23.550;2023-02-15T12:09:29;98436.81;;;14.79;40.68
21361;BME280;10839;43.206;23.550;2023-02-15T12:12:29;98432.38;;;14.13;42.34
21361;BME280;10839;43.206;23.550;2023-02-15T12:14:58;98429.84;;;14.70;41.32
21361;BME280;10839;43.206;23.550;2023-02-15T12:17:28;98429.66;;;14.72;41.02
21361;BME280;10839;43.206;23.550;2023-02-15T12:19:59;98438.84;;;13.53;42.79
21361;BME280;10839;43.206;23.550;2023-02-15T12:22:31;98435.19;;;13.83;42.36
21361;BME280;10839;43.206;23.550;2023-02-15T12:25:00;98435.78;;;14.07;41.88
21361;BME280;10839;43.206;23.550;2023-02-15T12:27:30;98426.63;;;13.20;43.92
21361;BME280;10839;43.206;23.550;2023-02-15T12:30:00;98421.91;;;13.59;43.82
21361;BME280;10839;43.206;23.550;2023-02-15T12:32:31;98416.44;;;14.33;42.66
21361;BME280;10839;43.206;23.550;2023-02-15T12:35:21;98413.59;;;13.23;44.22
21361;BME280;10839;43.206;23.550;2023-02-15T12:37:56;98406.63;;;13.66;43.09
21361;BME280;10839;43.206;23.550;2023-02-15T12:40:25;98412.09;;;14.24;42.27
21361;BME280;10839;43.206;23.550;2023-02-15T12:42:53;98407.75;;;13.12;43.71
21361;BME280;10839;43.206;23.550;2023-02-15T12:48:28;98404.31;;;13.18;43.34
21361;BME280;10839;43.206;23.550;2023-02-15T12:51:07;98400.06;;;12.31;45.70
21361;BME280;10839;43.206;23.550;2023-02-15T12:53:35;98410.53;;;13.04;44.73
21361;BME280;10839;43.206;23.550;2023-02-15T12:56:07;98414.06;;;13.27;44.09
21361;BME280;10839;43.206;23.550;2023-02-15T12:58:38;98408.81;;;12.41;45.71
21361;BME280;10839;43.206;23.550;2023-02-15T13:01:17;98405.03;;;12.58;46.42
21361;BME280;10839;43.206;23.550;2023-02-15T13:04:00;98397.06;;;12.87;45.39
21361;BME280;10839;43.206;23.550;2023-02-15T13:06:29;98405.22;;;12.10;47.19
21361;BME280;10839;43.206;23.550;2023-02-15T13:09:14;98401.19;;;12.06;47.97
21361;BME280;10839;43.206;23.550;2023-02-15T13:11:42;98398.16;;;12.78;46.19
21361;BME280;10839;43.206;23.550;2023-02-15T13:14:31;98406.66;;;11.82;48.21
21361;BME280;10839;43.206;23.550;2023-02-15T13:17:00;98404.28;;;11.71;48.66
21361;BME280;10839;43.206;23.550;2023-02-15T13:19:39;98402.00;;;12.53;46.83
21361;BME280;10839;43.206;23.550;2023-02-15T13:22:13;98408.03;;;11.54;48.84
21361;BME280;10839;43.206;23.550;2023-02-15T13:24:46;98403.63;;;11.61;49.37
21361;BME280;10839;43.206;23.550;2023-02-15T13:27:20;98408.94;;;12.09;47.71
21361;BME280;10839;43.206;23.550;2023-02-15T13:29:51;98415.09;;;11.23;49.72
21361;BME280;10839;43.206;23.550;2023-02-15T13:34:59;98405.66;;;11.75;48.77
21361;BME280;10839;43.206;23.550;2023-02-15T13:37:40;98407.00;;;11.15;49.98
21361;BME280;10839;43.206;23.550;2023-02-15T13:40:25;98413.53;;;10.96;51.26
21361;BME280;10839;43.206;23.550;2023-02-15T13:42:59;98414.25;;;11.38;50.37
21361;BME280;10839;43.206;23.550;2023-02-15T13:45:39;98413.75;;;11.19;51.01
21361;BME280;10839;43.206;23.550;2023-02-15T13:51:13;98423.53;;;11.44;50.70
21361;BME280;10839;43.206;23.550;2023-02-15T14:10:00;98442.25;;;10.64;53.54
21361;BME280;10839;43.206;23.550;2023-02-15T14:15:03;98433.47;;;10.54;53.93
21361;BME280;10839;43.206;23.550;2023-02-15T14:17:55;98431.06;;;10.35;54.33
21361;BME280;10839;43.206;23.550;2023-02-15T14:26:06;98447.69;;;10.04;55.07
21361;BME280;10839;43.206;23.550;2023-02-15T14:31:11;98440.16;;;9.82;56.97
21361;BME280;10839;43.206;23.550;2023-02-15T14:33:55;98436.94;;;10.04;56.31
21361;BME280;10839;43.206;23.550;2023-02-15T14:36:22;98429.56;;;9.81;57.27
21361;BME280;10839;43.206;23.550;2023-02-15T14:41:59;98438.84;;;9.86;57.97
21361;BME280;10839;43.206;23.550;2023-02-15T14:44:43;98430.28;;;9.65;58.50
21361;BME280;10839;43.206;23.550;2023-02-15T14:47:34;98427.28;;;9.68;58.44
21361;BME280;10839;43.206;23.550;2023-02-15T14:53:32;98433.13;;;9.38;59.54
21361;BME280;10839;43.206;23.550;2023-02-15T14:58:57;98432.19;;;9.47;59.89
21361;BME280;10839;43.206;23.550;2023-02-15T15:01:28;98428.00;;;9.27;60.54
21361;BME280;10839;43.206;23.550;2023-02-15T15:04:14;98427.22;;;9.35;60.42
21361;BME280;10839;43.206;23.550;2023-02-15T15:07:19;98430.81;;;9.43;60.18
21361;BME280;10839;43.206;23.550;2023-02-15T15:09:46;98426.84;;;9.12;61.56
21361;BME280;10839;43.206;23.550;2023-02-15T15:14:53;98419.88;;;9.19;61.97
21361;BME280;10839;43.206;23.550;2023-02-15T15:25:45;98430.47;;;8.85;63.53
21361;BME280;10839;43.206;23.550;2023-02-15T15:42:17;98431.88;;;8.45;66.54
21361;BME280;10839;43.206;23.550;2023-02-15T15:50:25;98436.06;;;7.93;67.93
21361;BME280;10839;43.206;23.550;2023-02-15T15:52:57;98427.91;;;7.01;71.49
21361;BME280;10839;43.206;23.550;2023-02-15T15:55:26;98440.28;;;7.30;71.41
21361;BME280;10839;43.206;23.550;2023-02-15T15:57:57;98436.22;;;7.26;70.97
21361;BME280;10839;43.206;23.550;2023-02-15T16:00:44;98438.50;;;6.83;72.99
21361;BME280;10839;43.206;23.550;2023-02-15T16:03:30;98434.00;;;6.93;73.00
21361;BME280;10839;43.206;23.550;2023-02-15T16:05:57;98438.75;;;6.99;72.25
21361;BME280;10839;43.206;23.550;2023-02-15T16:08:27;98437.06;;;6.60;74.21
21361;BME280;10839;43.206;23.550;2023-02-15T16:10:53;98432.81;;;6.67;74.33
21361;BME280;10839;43.206;23.550;2023-02-15T16:13:20;98437.06;;;6.79;73.61
21361;BME280;10839;43.206;23.550;2023-02-15T16:15:49;98437.16;;;6.49;74.88
21361;BME280;10839;43.206;23.550;2023-02-15T16:18:20;98439.84;;;6.49;74.88